Terminal Aerodrome Forecast
Issued by NWS Raleigh/Durham, NC

Home | Current Version | Previous Version | Text Only | Print | Product List | Glossary On
Versions: 1 2 3 4 5 6 7 8 9 10 11 12 13 14 15 16 17 18 19 20 21 22 23 24 25 26 27 28 29 30 31 32 33 34 35 36 37 38 39 40 41 42 43 44
000
FTUS42 KRAH 190531
TAFFAY
TAF
KFAY 190531Z 1906/2006 00000KT 1 1/2SM BR BKN035
      TEMPO 1906/1908 1/2SM FG VV002
     FM190800 05002KT P6SM OVC025
     FM191000 06002KT P6SM OVC035
     FM191600 13005KT P6SM -RA OVC015
     FM191700 13005KT 5SM -RA BR OVC015
     FM191900 14006KT P6SM BKN025
     FM192100 16008KT P6SM BKN050
     FM200100 18011G21KT 3SM -SHRA BR SCT030 OVC090 WS020/19040KT=

USA.gov is the U.S. government's official web portal to all federal, state and local government web resources and services.